Time;durP1;ratioP1;P1;durP2;ratioP2;P2;SDS_P1;SDS_P2;PMS_P1;PMS_P2;Temp;Humidity;BMP_temperature;BMP_pressure;BME280_temperature;BME280_humidity;BME280_pressure;Samples;Min_cycle;Max_cycle;Signal;HPM_P1;HPM_P2
2022/06/23 00:00:37;;;;;;;32.43;21.07;;;;;;;28.58;68.60;100817.81;5017278;28;69632;-35
2022/06/23 00:03:17;;;;;;;34.90;24.23;;;;;;;29.07;70.05;100864.38;5013208;28;67034;-34
2022/06/23 00:05:56;;;;;;;46.55;26.98;;;;;;;29.10;71.29;100858.56;5017977;28;69576;-39
2022/06/23 00:08:28;;;;;;;41.10;26.98;;;;;;;29.23;72.12;100869.38;5017529;28;66417;-34
2022/06/23 00:11:01;;;;;;;51.15;29.45;;;;;;;28.96;73.64;100815.31;5020852;28;70156;-34
2022/06/23 00:13:38;;;;;;;84.38;40.88;;;;;;;29.07;74.06;100815.78;5016900;28;65571;-35
2022/06/23 00:16:23;;;;;;;173.77;76.03;;;;;;;29.44;75.68;100872.88;5015753;28;69485;-34
2022/06/23 00:18:54;;;;;;;226.70;89.60;;;;;;;29.57;69.53;100878.25;5016807;28;65578;-34
2022/06/23 00:21:30;;;;;;;183.23;80.38;;;;;;;29.65;69.16;100878.06;5015573;28;69138;-37
2022/06/23 00:24:09;;;;;;;176.55;78.25;;;;;;;29.38;69.16;100818.63;5018197;28;66369;-35
2022/06/23 00:26:40;;;;;;;146.00;70.28;;;;;;;29.80;68.85;100870.50;5017704;28;69376;-38
2022/06/23 00:29:15;;;;;;;158.63;69.53;;;;;;;29.76;68.56;100861.16;5015229;28;65330;-37
2022/06/23 00:31:58;;;;;;;135.27;62.00;;;;;;;29.65;70.20;100840.22;5015356;28;70495;-36
2022/06/23 00:34:39;;;;;;;111.45;53.85;;;;;;;29.61;69.43;100822.69;5010544;28;65556;-36
2022/06/23 00:37:19;;;;;;;117.00;53.78;;;;;;;30.05;70.08;100888.72;5018649;28;70426;-32
2022/06/23 00:39:56;;;;;;;93.30;47.95;;;;;;;30.05;69.09;100872.50;5016270;28;66564;-34
2022/06/23 00:42:38;;;;;;;88.43;44.95;;;;;;;29.79;69.60;100825.59;5018585;28;70478;-35
2022/06/23 00:45:11;;;;;;;90.45;45.33;;;;;;;30.22;69.30;100889.91;5017324;28;66463;-37
2022/06/23 00:47:50;;;;;;;91.60;45.38;;;;;;;30.27;69.22;100897.41;5011349;28;69389;-37
2022/06/23 00:50:51;;;;;;;86.60;43.88;;;;;;;30.14;69.86;100876.59;5012846;28;65354;-37
2022/06/23 00:53:30;;;;;;;82.75;40.65;;;;;;;29.95;69.47;100818.03;5015937;28;70409;-36
2022/06/23 00:56:07;;;;;;;83.82;42.05;;;;;;;30.35;68.96;100874.69;5018768;28;65982;-40
2022/06/23 00:58:50;;;;;;;79.60;41.20;;;;;;;30.37;69.63;100880.69;5009324;28;70263;-37
2022/06/23 01:01:35;;;;;;;79.50;41.28;;;;;;;30.36;70.04;100877.16;5015863;28;66248;-38
2022/06/23 01:04:35;;;;;;;77.18;39.53;;;;;;;30.35;69.67;100878.22;5020126;28;70218;-38
2022/06/23 01:07:24;;;;;;;71.53;37.45;;;;;;;30.37;70.04;100877.97;5019908;28;67289;-37
2022/06/23 01:09:57;;;;;;;70.18;36.10;;;;;;;30.04;68.12;100805.94;5018900;28;70305;-38
2022/06/23 01:13:06;;;;;;;67.13;35.03;;;;;;;30.43;69.15;100887.94;5018687;28;65957;-37
2022/06/23 01:15:46;;;;;;;64.90;34.40;;;;;;;30.32;68.76;100857.00;5014991;28;69887;-37
2022/06/23 01:18:37;;;;;;;66.63;34.78;;;;;;;30.53;68.35;100891.00;5017592;28;65480;-38
2022/06/23 01:21:08;;;;;;;63.50;34.60;;;;;;;30.56;67.58;100887.84;5018202;28;70074;-37
2022/06/23 01:23:58;;;;;;;68.75;33.15;;;;;;;30.63;67.71;100891.34;5010866;28;65838;-38
2022/06/23 01:26:42;;;;;;;68.95;33.55;;;;;;;30.62;67.09;100897.84;5010556;28;69808;-38
2022/06/23 01:29:26;;;;;;;56.90;31.95;;;;;;;30.66;67.06;100896.34;5016334;28;65271;-37
2022/06/23 01:32:25;;;;;;;59.42;32.15;;;;;;;30.18;67.37;100839.97;5017245;28;69895;-38
2022/06/23 01:35:08;;;;;;;60.75;33.00;;;;;;;30.65;67.07;100900.09;5016814;28;65446;-37
2022/06/23 01:37:57;;;;;;;56.63;31.33;;;;;;;30.70;66.58;100900.28;5017256;28;69350;-38
2022/06/23 01:40:44;;;;;;;54.30;31.42;;;;;;;30.32;67.18;100834.53;5014381;28;66151;-38
2022/06/23 01:43:37;;;;;;;58.72;30.92;;;;;;;30.64;66.45;100887.59;5015339;28;70070;-37
2022/06/23 01:46:25;;;;;;;58.60;29.35;;;;;;;30.56;66.29;100868.06;5009876;28;66583;-38
2022/06/23 01:49:02;;;;;;;54.17;29.35;;;;;;;30.78;66.22;100879.38;5014508;28;70968;-38
2022/06/23 01:51:36;;;;;;;54.78;29.42;;;;;;;30.84;65.27;100883.94;5013908;28;66797;-38
2022/06/23 01:54:27;;;;;;;54.83;28.45;;;;;;;30.75;66.53;100877.13;5016090;28;70384;-37
2022/06/23 01:57:22;;;;;;;45.42;27.00;;;;;;;30.58;65.82;100830.78;5010149;28;64833;-37
2022/06/23 02:00:07;;;;;;;43.85;26.75;;;;;;;30.54;65.68;100816.88;5015186;28;70148;-38
2022/06/23 02:03:10;;;;;;;50.83;27.60;;;;;;;30.53;65.17;100815.19;5013972;28;64627;-37
2022/06/23 02:05:57;;;;;;;41.08;24.55;;;;;;;30.67;65.40;100838.44;5017208;28;70784;-37
2022/06/23 02:08:40;;;;;;;42.95;24.17;;;;;;;30.95;64.86;100872.38;5010745;28;66248;-37
2022/06/23 02:11:35;;;;;;;38.80;24.20;;;;;;;30.92;65.34;100875.53;5016883;28;71051;-38
2022/06/23 02:14:20;;;;;;;42.92;24.33;;;;;;;31.03;64.53;100874.81;5014957;28;65640;-38
2022/06/23 02:17:10;;;;;;;44.53;24.75;;;;;;;30.98;65.02;100871.97;5017955;28;70220;-38
2022/06/23 02:19:52;;;;;;;41.33;24.70;;;;;;;31.05;64.42;100872.72;5016350;28;66246;-37
2022/06/23 02:22:45;;;;;;;38.85;24.30;;;;;;;31.00;64.85;100886.09;5011890;28;69803;-36
2022/06/23 02:25:26;;;;;;;42.10;23.08;;;;;;;30.97;64.19;100851.34;5016993;28;66305;-36
2022/06/23 02:28:02;;;;;;;40.88;22.23;;;;;;;30.96;64.19;100843.44;5010814;28;69294;-37
2022/06/23 02:30:45;;;;;;;36.53;21.73;;;;;;;31.07;64.11;100865.22;5013003;28;66747;-36
2022/06/23 02:33:24;;;;;;;35.53;21.20;;;;;;;31.23;63.63;100873.81;5008588;28;69446;-37
2022/06/23 02:35:59;;;;;;;35.40;21.42;;;;;;;30.94;63.81;100827.41;5017806;28;65299;-38
2022/06/23 02:38:33;;;;;;;37.05;21.17;;;;;;;31.27;63.39;100869.63;5010977;28;70306;-36
2022/06/23 02:41:19;;;;;;;32.78;21.67;;;;;;;31.28;63.01;100871.28;5010221;28;66590;-37
2022/06/23 02:44:04;;;;;;;32.20;20.83;;;;;;;31.31;63.69;100868.13;5014354;28;70275;-36
2022/06/23 02:46:48;;;;;;;36.58;22.50;;;;;;;31.34;63.44;100860.38;5009732;28;66502;-38
2022/06/23 02:49:56;;;;;;;33.08;20.83;;;;;;;30.98;63.14;100806.97;5016639;28;69332;-36
2022/06/23 02:52:39;;;;;;;29.35;19.25;;;;;;;31.35;63.41;100856.59;5003501;28;65778;-39
2022/06/23 02:55:29;;;;;;;34.13;19.40;;;;;;;31.36;62.84;100857.47;5014752;28;69365;-38
2022/06/23 02:58:07;;;;;;;31.33;20.13;;;;;;;31.34;62.77;100843.28;5006927;28;66488;-36
2022/06/23 03:00:51;;;;;;;39.25;20.25;;;;;;;31.47;62.66;100859.44;5010082;28;69955;-37
2022/06/23 03:03:41;;;;;;;27.98;18.98;;;;;;;31.42;62.34;100848.44;5014739;28;66327;-38
2022/06/23 03:06:20;;;;;;;29.98;18.48;;;;;;;31.55;62.61;100867.28;5001016;28;69929;-37
2022/06/23 03:09:29;;;;;;;29.55;18.27;;;;;;;31.49;62.16;100862.75;5008241;28;66871;-37
2022/06/23 03:12:11;;;;;;;27.70;18.65;;;;;;;31.63;62.02;100857.19;5010708;28;69924;-37
2022/06/23 03:14:50;;;;;;;30.13;18.17;;;;;;;31.60;62.25;100848.44;5018576;28;66618;-36
2022/06/23 03:17:25;;;;;;;23.60;17.58;;;;;;;31.33;62.15;100784.72;5016803;28;69303;-36
2022/06/23 03:20:07;;;;;;;28.38;17.90;;;;;;;31.39;62.06;100791.97;5013721;28;66528;-37
2022/06/23 03:23:09;;;;;;;26.30;17.77;;;;;;;31.33;62.15;100788.25;5009558;28;70008;-35
2022/06/23 03:26:15;;;;;;;25.27;17.52;;;;;;;31.59;61.96;100830.53;5016615;28;65215;-38
2022/06/23 03:29:11;;;;;;;24.10;16.00;;;;;;;31.77;62.01;100834.28;5010382;28;71043;-37
2022/06/23 03:32:12;;;;;;;23.88;16.35;;;;;;;31.68;62.52;100820.19;5009447;28;66309;-38
2022/06/23 03:34:57;;;;;;;28.42;16.95;;;;;;;31.35;61.90;100742.78;5011272;28;70029;-37
2022/06/23 03:41:36;;;;;;;26.20;15.88;;;;;;;31.64;62.18;100826.31;5009143;28;66286;-37
2022/06/23 03:41:37;;;;;;;19.50;15.20;;;;;;;31.42;62.04;100758.16;5008642;28;70442;-36
2022/06/23 03:44:18;;;;;;;;;;;;;;;31.48;62.73;100817.72;5018257;28;65891;-38
2022/06/23 03:47:01;;;;;;;16.52;14.00;;;;;;;31.83;61.98;100815.19;5009789;28;70912;-37
2022/06/23 03:49:53;;;;;;;20.02;14.02;;;;;;;31.63;61.54;100782.09;5010401;28;66267;-36
2022/06/23 03:52:37;;;;;;;26.00;14.95;;;;;;;31.89;61.63;100802.59;5009190;28;70686;-37
2022/06/23 03:55:16;;;;;;;16.40;13.60;;;;;;;31.92;61.33;100796.75;5020781;28;66307;-37
2022/06/23 03:57:55;;;;;;;22.20;13.80;;;;;;;31.90;61.13;100798.00;5013652;28;70026;-38
2022/06/23 04:00:29;;;;;;;22.35;14.00;;;;;;;31.95;61.51;100796.28;5017690;28;66319;-38
2022/06/23 04:03:17;;;;;;;17.50;12.88;;;;;;;31.91;61.48;100799.69;5009309;28;69676;-39
2022/06/23 04:05:57;;;;;;;19.52;13.32;;;;;;;31.96;61.20;100800.69;5010620;28;66074;-40
2022/06/23 04:08:34;;;;;;;13.65;12.25;;;;;;;31.66;61.57;100740.13;5019043;28;70112;-37
2022/06/23 04:12:01;;;;;;;17.50;13.20;;;;;;;31.36;61.35;100694.84;5011846;28;67040;-37
2022/06/23 04:14:09;;;;;;;16.23;13.02;;;;;;;31.67;61.33;100733.66;5009270;28;69236;-36
2022/06/23 04:16:51;;;;;;;14.40;12.82;;;;;;;32.00;61.35;100782.03;5019228;28;66443;-38
2022/06/23 04:19:28;;;;;;;13.50;12.20;;;;;;;32.01;61.29;100795.41;5015953;28;69930;-37
2022/06/23 04:22:21;;;;;;;16.65;13.10;;;;;;;31.82;61.35;100758.47;5010357;28;65589;-37
2022/06/23 04:24:56;;;;;;;15.45;11.95;;;;;;;32.08;61.20;100794.47;5011602;28;69132;-41
2022/06/23 04:27:55;;;;;;;13.93;12.50;;;;;;;31.73;60.94;100732.72;5019888;28;65192;-37
2022/06/23 04:30:27;;;;;;;15.25;11.98;;;;;;;32.11;61.23;100783.16;5013916;28;70145;-40
2022/06/23 04:33:00;;;;;;;22.35;12.48;;;;;;;31.77;61.10;100728.50;5013456;28;65757;-38
2022/06/23 04:35:36;;;;;;;12.50;11.25;;;;;;;32.19;60.86;100788.25;5008005;28;70146;-37
2022/06/23 04:38:31;;;;;;;16.02;12.23;;;;;;;31.88;61.03;100744.00;5016892;28;66182;-37
2022/06/23 04:41:12;;;;;;;14.25;12.70;;;;;;;32.18;61.13;100783.84;5013036;28;70451;-36
2022/06/23 04:44:06;;;;;;;14.90;11.75;;;;;;;32.10;60.99;100789.66;5017294;28;66356;-37
2022/06/23 04:47:23;;;;;;;12.73;11.35;;;;;;;32.03;61.17;100782.41;5008704;28;69172;-39
2022/06/23 04:50:13;;;;;;;11.75;10.63;;;;;;;32.21;60.87;100775.28;5052222;28;66322;-38
2022/06/23 04:52:52;;;;;;;12.32;11.05;;;;;;;32.12;60.75;100746.78;5054718;28;70575;-39
2022/06/23 04:55:30;;;;;;;12.23;10.88;;;;;;;32.28;60.83;100770.56;5019172;28;66612;-38
2022/06/23 04:58:16;;;;;;;11.30;9.95;;;;;;;32.08;60.74;100718.50;5009134;28;70288;-36
2022/06/23 05:00:50;;;;;;;10.73;9.90;;;;;;;32.27;60.79;100750.75;5007914;28;66899;-39
2022/06/23 05:03:32;;;;;;;13.63;10.57;;;;;;;32.12;60.59;100700.66;5007500;28;70290;-37
2022/06/23 05:06:17;;;;;;;;;;;;;;;32.04;61.20;100746.09;5004861;28;65502;-39
2022/06/23 05:08:50;;;;;;;10.95;10.05;;;;;;;32.37;60.72;100728.44;5003200;28;69884;-39
2022/06/23 05:11:40;;;;;;;10.70;9.25;;;;;;;32.25;60.83;100725.72;5013077;28;65923;-38
2022/06/23 05:14:42;;;;;;;10.60;9.80;;;;;;;32.30;60.47;100721.47;5003211;28;70367;-40
2022/06/23 05:17:20;;;;;;;13.25;8.65;;;;;;;32.44;60.30;100726.44;5019302;28;65711;-37
2022/06/23 05:19:59;;;;;;;10.95;9.93;;;;;;;32.31;60.05;100694.09;5013319;28;69634;-37
2022/06/23 05:22:40;;;;;;;10.13;9.18;;;;;;;32.12;60.20;100659.97;5018714;28;66054;-37
2022/06/23 05:25:28;;;;;;;10.43;9.10;;;;;;;32.46;60.03;100699.94;5011268;28;69540;-38
2022/06/23 05:28:02;;;;;;;9.70;8.80;;;;;;;32.49;60.20;100694.03;5014835;28;66950;-36
2022/06/23 05:30:40;;;;;;;9.93;8.75;;;;;;;32.44;60.22;100679.47;5004859;28;70856;-37
2022/06/23 05:33:24;;;;;;;9.23;8.50;;;;;;;32.44;60.11;100674.03;5005049;28;65215;-36
2022/06/23 05:36:06;;;;;;;9.20;8.43;;;;;;;32.14;60.01;100619.88;5012863;28;70332;-38
2022/06/23 05:38:44;;;;;;;9.13;8.35;;;;;;;32.49;60.17;100680.44;5003803;28;66671;-38
2022/06/23 05:41:36;;;;;;;9.10;8.43;;;;;;;32.42;59.76;100668.84;5010140;28;70026;-37
2022/06/23 05:44:14;;;;;;;8.98;7.60;;;;;;;32.25;60.00;100629.91;5014058;28;65512;-37
2022/06/23 05:46:48;;;;;;;9.75;8.90;;;;;;;32.46;60.09;100648.34;5011836;28;70129;-37
2022/06/23 05:49:32;;;;;;;8.55;7.85;;;;;;;32.56;59.89;100655.88;5003241;28;65699;-37
2022/06/23 05:52:14;;;;;;;8.75;7.97;;;;;;;32.56;59.84;100636.06;5012333;28;70085;-37
2022/06/23 05:55:00;;;;;;;9.93;7.68;;;;;;;32.52;59.76;100613.16;5006447;28;65525;-39
2022/06/23 05:57:45;;;;;;;7.75;7.15;;;;;;;32.62;59.79;100629.66;5011512;28;69647;-38
2022/06/23 06:00:26;;;;;;;8.15;7.38;;;;;;;32.33;59.86;100577.97;5015939;28;66571;-37
2022/06/23 06:03:21;;;;;;;8.13;7.53;;;;;;;32.64;59.80;100635.69;5013037;28;69588;-36
2022/06/23 06:06:00;;;;;;;7.22;6.80;;;;;;;32.07;59.60;100508.75;5002897;28;66432;-36
2022/06/23 06:11:49;;;;;;;7.78;7.07;;;;;;;32.55;59.48;100559.19;5011437;28;66163;-36
2022/06/23 06:14:24;;;;;;;7.35;6.80;;;;;;;32.87;59.28;100605.75;5006769;28;70233;-37
2022/06/23 06:16:59;;;;;;;6.78;6.13;;;;;;;32.92;59.45;100595.00;5007596;28;66545;-37
2022/06/23 06:19:34;;;;;;;6.75;6.13;;;;;;;32.93;59.14;100590.38;5011127;28;69145;-36
2022/06/23 06:22:39;;;;;;;6.72;6.30;;;;;;;32.43;59.00;100521.19;5016714;28;65859;-37
2022/06/23 06:25:24;;;;;;;6.57;6.00;;;;;;;32.96;59.01;100591.78;5009282;28;70396;-36
2022/06/23 06:28:01;;;;;;;6.45;5.95;;;;;;;32.69;59.21;100519.03;5011079;28;65441;-37
2022/06/23 06:30:37;;;;;;;6.53;6.05;;;;;;;32.99;58.90;100545.09;5006104;28;70100;-37
2022/06/23 06:33:22;;;;;;;6.40;6.00;;;;;;;32.78;58.89;100506.69;5006098;28;66443;-37
2022/06/23 06:35:54;;;;;;;5.85;5.45;;;;;;;32.94;58.87;100516.78;5007202;28;70103;-37
2022/06/23 06:38:28;;;;;;;6.18;5.68;;;;;;;32.81;58.98;100481.75;5005188;28;65833;-36
2022/06/23 06:41:00;;;;;;;6.45;5.95;;;;;;;33.20;58.55;100530.06;5003616;28;69331;-36
2022/06/23 06:43:33;;;;;;;6.05;5.65;;;;;;;33.11;58.80;100507.88;5012666;28;66658;-36
2022/06/23 06:46:04;;;;;;;5.95;5.35;;;;;;;33.27;58.43;100523.41;5018251;28;69860;-36
2022/06/23 06:48:40;;;;;;;5.88;5.47;;;;;;;33.00;58.43;100466.13;5011502;28;66255;-36
2022/06/23 06:51:17;;;;;;;5.80;5.40;;;;;;;33.32;58.36;100507.19;5006494;28;69572;-37
2022/06/23 06:54:00;;;;;;;5.40;4.97;;;;;;;33.36;58.09;100519.19;5012712;28;66021;-36
2022/06/23 06:56:54;;;;;;;5.28;4.88;;;;;;;33.31;58.49;100516.38;5009190;28;69139;-35
2022/06/23 06:59:31;;;;;;;4.82;4.43;;;;;;;33.05;57.91;100435.50;5015389;28;66117;-36
2022/06/23 07:02:14;;;;;;;5.40;4.90;;;;;;;33.06;57.55;100443.38;5009093;28;69746;-38
2022/06/23 07:05:07;;;;;;;5.40;4.93;;;;;;;33.00;57.99;100438.13;5015882;28;66074;-36
2022/06/23 07:07:43;;;;;;;;;;;;;;;33.16;58.57;100494.38;5009346;28;70032;-37
2022/06/23 07:10:45;;;;;;;5.07;4.68;;;;;;;33.08;58.02;100430.38;5011146;28;66403;-36
2022/06/23 07:13:48;;;;;;;7.68;4.55;;;;;;;33.35;58.02;100468.63;5016809;28;70158;-37
2022/06/23 07:16:26;;;;;;;5.63;4.20;;;;;;;33.41;57.84;100445.06;5017873;28;66273;-38
2022/06/23 07:19:09;;;;;;;5.05;4.65;;;;;;;33.28;57.47;100424.47;5011894;28;70171;-37
2022/06/23 07:22:10;;;;;;;4.88;4.32;;;;;;;33.43;57.81;100458.38;5017952;28;66617;-36
2022/06/23 07:24:54;;;;;;;4.88;4.30;;;;;;;33.20;57.67;100424.88;5015295;28;70191;-37
2022/06/23 07:27:39;;;;;;;4.97;4.60;;;;;;;33.54;57.68;100471.09;5015220;28;65843;-38
2022/06/23 07:30:16;;;;;;;4.43;4.07;;;;;;;33.59;57.58;100479.34;5015789;28;70308;-37
2022/06/23 07:33:12;;;;;;;4.63;4.22;;;;;;;33.50;57.81;100475.38;5013486;28;65993;-38
2022/06/23 07:35:54;;;;;;;4.30;4.00;;;;;;;33.60;57.47;100475.56;5013378;28;70143;-37
2022/06/23 07:38:46;;;;;;;4.60;4.20;;;;;;;32.91;57.49;100362.44;5010827;28;65932;-37
2022/06/23 07:41:25;;;;;;;4.50;4.20;;;;;;;33.58;57.43;100461.41;5017448;28;70682;-40
2022/06/23 07:44:15;;;;;;;4.82;4.40;;;;;;;33.55;57.83;100445.56;5015970;28;65578;-37
2022/06/23 07:46:47;;;;;;;3.95;3.65;;;;;;;33.62;57.74;100437.22;5012722;28;69129;-36
2022/06/23 07:49:26;;;;;;;4.38;3.97;;;;;;;33.56;57.45;100425.47;5014032;28;66808;-38
2022/06/23 07:51:58;;;;;;;4.82;4.45;;;;;;;33.55;57.65;100445.56;5027358;28;70389;-37
2022/06/23 07:54:36;;;;;;;4.43;4.03;;;;;;;33.23;57.76;100405.34;5013084;28;66534;-36
2022/06/23 07:57:06;;;;;;;;;;;;;;;33.33;58.35;100476.19;4987869;28;68964;-38
2022/06/23 07:59:46;;;;;;;4.63;4.28;;;;;;;33.32;57.80;100480.00;5016030;28;67064;-37
2022/06/23 08:02:27;;;;;;;4.63;4.18;;;;;;;33.32;57.97;100511.78;5016060;28;70054;-36
2022/06/23 08:05:21;;;;;;;5.50;4.13;;;;;;;33.48;57.79;100518.28;5013113;28;66276;-38
2022/06/23 08:07:54;;;;;;;4.45;4.05;;;;;;;33.58;58.04;100527.47;5016219;28;69595;-37
2022/06/23 08:10:30;;;;;;;4.00;3.70;;;;;;;33.61;58.18;100539.75;5016534;28;65681;-36
2022/06/23 08:13:27;;;;;;;5.32;4.45;;;;;;;33.52;58.94;100541.22;5015570;28;70643;-36
2022/06/23 08:18:52;;;;;;;4.93;4.15;;;;;;;33.53;59.35;100540.16;5016212;28;70025;-38
2022/06/23 08:21:37;;;;;;;4.32;4.03;;;;;;;33.33;59.08;100487.06;5015373;28;66361;-36
2022/06/23 08:24:18;;;;;;;5.13;3.40;;;;;;;33.47;59.36;100513.94;5021533;28;69328;-37
2022/06/23 08:27:11;;;;;;;3.88;3.58;;;;;;;33.36;59.86;100497.44;5004174;28;66547;-36
2022/06/23 08:29:48;;;;;;;3.35;3.15;;;;;;;33.13;59.58;100421.50;5004575;28;69327;-38
2022/06/23 08:32:20;;;;;;;4.07;3.60;;;;;;;33.36;59.43;100439.53;5011946;28;66030;-37
2022/06/23 08:35:09;;;;;;;4.18;3.78;;;;;;;33.35;59.64;100474.06;5018070;28;70224;-36
2022/06/23 08:37:52;;;;;;;3.70;3.35;;;;;;;33.33;59.64;100470.75;5002404;28;66242;-38
2022/06/23 08:40:37;;;;;;;3.75;3.50;;;;;;;33.33;59.72;100481.63;5017316;28;70550;-38
2022/06/23 08:43:30;;;;;;;3.50;3.20;;;;;;;33.22;59.66;100468.13;5012811;28;66092;-36
2022/06/23 08:46:05;;;;;;;3.08;2.88;;;;;;;33.32;59.52;100465.56;5007642;28;70041;-39
2022/06/23 08:49:09;;;;;;;3.30;3.00;;;;;;;32.83;59.97;100411.72;5013567;28;65296;-37
2022/06/23 08:52:01;;;;;;;3.78;3.30;;;;;;;33.18;59.99;100494.13;5015448;28;69402;-36
2022/06/23 08:54:55;;;;;;;3.63;3.40;;;;;;;33.15;60.24;100511.75;5013390;28;65587;-37
2022/06/23 08:57:39;;;;;;;3.03;2.83;;;;;;;33.15;60.27;100534.34;5010723;28;70048;-37
2022/06/23 09:00:29;;;;;;;5.03;3.35;;;;;;;32.40;60.68;100429.38;5018531;28;66720;-37
2022/06/23 09:03:04;;;;;;;3.47;3.17;;;;;;;32.72;60.91;100475.09;5015128;28;70257;-36
2022/06/23 09:06:13;;;;;;;3.97;3.28;;;;;;;33.00;60.90;100546.81;5010091;28;65923;-37
2022/06/23 09:09:09;;;;;;;4.60;3.35;;;;;;;33.01;60.90;100575.63;5017388;28;70178;-39
2022/06/23 09:12:01;;;;;;;4.68;3.60;;;;;;;32.97;61.00;100574.44;5014197;28;65776;-37
2022/06/23 09:14:59;;;;;;;6.38;3.67;;;;;;;32.86;61.31;100563.34;5013530;28;70097;-36
2022/06/23 09:17:49;;;;;;;3.85;3.55;;;;;;;32.84;61.64;100554.63;5016337;28;66172;-37
2022/06/23 09:20:38;;;;;;;3.97;3.63;;;;;;;32.81;61.72;100544.25;5017567;28;70574;-37
2022/06/23 09:23:36;;;;;;;4.68;3.05;;;;;;;32.76;61.79;100530.56;5013111;28;66352;-38
2022/06/23 09:26:10;;;;;;;4.57;4.18;;;;;;;32.77;61.92;100537.66;5016015;28;69522;-37
2022/06/23 09:28:57;;;;;;;5.38;3.90;;;;;;;32.67;62.32;100556.44;5016766;28;65405;-37
2022/06/23 09:32:00;;;;;;;4.80;4.40;;;;;;;31.90;62.64;100454.34;5018101;28;70065;-38
2022/06/23 09:34:49;;;;;;;;;;;;;;;32.31;63.37;100577.38;5013439;28;66663;-37
2022/06/23 09:37:43;;;;;;;6.88;4.43;;;;;;;32.61;62.54;100593.53;5015471;28;70065;-37
2022/06/23 09:40:33;;;;;;;6.57;3.92;;;;;;;32.51;62.77;100592.50;5018234;28;66355;-38
2022/06/23 09:43:32;;;;;;;6.63;3.70;;;;;;;32.49;62.71;100601.72;5016979;28;69146;-40
2022/06/23 09:46:09;;;;;;;4.72;4.28;;;;;;;32.57;62.55;100602.41;5018294;28;66471;-37
2022/06/23 09:49:21;;;;;;;3.95;3.65;;;;;;;32.43;63.23;100602.63;5018644;28;69578;-38
2022/06/23 09:52:26;;;;;;;6.13;4.40;;;;;;;32.03;63.24;100553.66;5017211;28;65413;-38
2022/06/23 09:55:32;;;;;;;4.45;4.15;;;;;;;32.35;63.28;100615.75;5017194;28;70037;-37
2022/06/23 09:58:25;;;;;;;4.35;3.95;;;;;;;32.45;62.96;100627.63;5018419;28;66132;-38
2022/06/23 10:01:24;;;;;;;7.88;4.00;;;;;;;32.23;63.04;100602.16;5007941;28;70268;-37
2022/06/23 10:04:39;;;;;;;4.15;3.85;;;;;;;32.37;62.95;100641.56;5016216;28;65396;-37
2022/06/23 10:07:27;;;;;;;5.53;4.00;;;;;;;32.42;62.67;100644.41;5025274;28;69733;-38
2022/06/23 10:10:35;;;;;;;4.40;4.03;;;;;;;32.33;63.13;100645.81;4999280;28;66502;-38
2022/06/23 10:13:33;;;;;;;4.10;3.80;;;;;;;32.41;62.41;100648.19;5015864;28;70204;-38
2022/06/23 10:16:23;;;;;;;5.03;4.50;;;;;;;32.32;63.19;100648.75;5010342;28;66383;-37
2022/06/23 10:19:21;;;;;;;4.55;4.15;;;;;;;32.13;65.17;100659.75;5012806;28;70135;-38
2022/06/23 10:21:54;;;;;;;5.15;4.68;;;;;;;32.07;66.32;100689.69;5011054;28;67113;-37
2022/06/23 10:25:02;;;;;;;4.68;4.28;;;;;;;31.82;67.80;100704.25;5012510;28;69003;-37
2022/06/23 10:27:58;;;;;;;6.53;4.80;;;;;;;31.81;68.40;100713.41;5014115;28;66786;-36
2022/06/23 10:30:46;;;;;;;4.85;4.45;;;;;;;31.73;69.27;100700.19;5016156;28;69999;-38
2022/06/23 10:33:17;;;;;;;5.22;4.82;;;;;;;31.66;69.11;100692.16;5015986;28;65650;-39
2022/06/23 10:36:06;;;;;;;7.10;4.65;;;;;;;31.11;70.27;100625.28;5014069;28;70303;-39
2022/06/23 10:38:57;;;;;;;4.22;3.83;;;;;;;31.27;71.16;100675.31;5015059;28;65719;-35
2022/06/23 10:41:52;;;;;;;7.75;4.85;;;;;;;31.16;71.85;100701.31;5013458;28;69209;-42
2022/06/23 10:44:23;;;;;;;4.80;4.43;;;;;;;31.20;71.76;100717.09;5012297;28;66947;-38
2022/06/23 10:47:18;;;;;;;6.82;5.20;;;;;;;31.00;72.69;100725.47;5014631;28;70584;-36
2022/06/23 10:49:49;;;;;;;9.40;5.80;;;;;;;31.02;72.88;100721.47;5013587;28;65309;-41
2022/06/23 10:52:47;;;;;;;6.07;5.30;;;;;;;30.86;73.59;100722.88;5014841;28;70073;-36
2022/06/23 10:55:22;;;;;;;6.47;5.88;;;;;;;30.90;73.55;100718.69;5015010;28;66466;-36
2022/06/23 10:57:59;;;;;;;11.75;10.48;;;;;;;30.92;74.35;100723.88;5012870;28;70141;-39
2022/06/23 11:01:05;;;;;;;17.35;13.95;;;;;;;30.89;74.71;100727.03;5012839;28;66748;-39
2022/06/23 11:03:57;;;;;;;19.23;14.18;;;;;;;31.04;74.68;100749.19;5015211;28;70491;-39
2022/06/23 11:06:49;;;;;;;13.65;12.32;;;;;;;30.98;75.49;100747.38;5009927;28;65532;-41
2022/06/23 11:09:34;;;;;;;17.15;11.02;;;;;;;30.71;75.46;100706.97;5016968;28;70151;-39
2022/06/23 11:12:26;;;;;;;12.57;9.55;;;;;;;31.05;75.49;100767.06;5013678;28;66257;-39
2022/06/23 11:15:13;;;;;;;10.23;8.32;;;;;;;31.12;74.51;100770.56;5013606;28;70252;-37
2022/06/23 11:18:12;;;;;;;9.15;7.18;;;;;;;31.02;74.60;100785.66;5010402;28;66283;-39
2022/06/23 11:21:01;;;;;;;13.07;6.25;;;;;;;31.08;74.76;100785.59;5012631;28;69628;-39
2022/06/23 11:24:05;;;;;;;5.85;5.13;;;;;;;31.04;74.13;100795.22;5011868;28;66119;-38
2022/06/23 11:27:09;;;;;;;5.57;5.03;;;;;;;30.99;74.42;100780.69;5012038;28;69604;-38
2022/06/23 11:29:47;;;;;;;7.07;4.80;;;;;;;31.12;74.10;100792.22;5013690;28;66302;-40
2022/06/23 11:32:45;;;;;;;7.38;5.18;;;;;;;31.09;74.56;100792.69;5011232;28;69825;-39
2022/06/23 11:35:51;;;;;;;5.55;5.05;;;;;;;31.02;74.13;100797.31;5011249;28;65397;-37
2022/06/23 11:38:50;;;;;;;5.13;4.05;;;;;;;31.03;74.50;100788.13;5017973;28;70735;-39
2022/06/23 11:41:50;;;;;;;5.47;4.22;;;;;;;30.78;74.52;100733.16;5007898;28;66650;-39
2022/06/23 11:44:38;;;;;;;4.85;4.55;;;;;;;30.93;72.90;100772.41;5020314;28;70562;-36
2022/06/23 11:47:33;;;;;;;6.05;5.55;;;;;;;30.81;73.22;100767.94;5015006;28;65738;-38
2022/06/23 11:50:35;;;;;;;5.93;5.43;;;;;;;30.29;72.85;100711.31;5019919;28;69963;-36
2022/06/23 11:53:31;;;;;;;6.45;5.45;;;;;;;30.62;72.93;100786.81;5014925;28;66046;-36
2022/06/23 11:56:08;;;;;;;8.13;4.82;;;;;;;30.66;73.63;100793.44;5013713;28;69669;-38
2022/06/23 11:59:01;;;;;;;6.55;4.63;;;;;;;30.43;73.25;100776.97;5015837;28;66615;-37
2022/06/23 12:01:32;;;;;;;5.28;4.82;;;;;;;30.53;73.50;100798.97;5016242;28;69429;-37
2022/06/23 12:04:28;;;;;;;5.32;4.82;;;;;;;30.18;73.28;100785.84;5000959;28;65509;-38
2022/06/23 12:07:11;;;;;;;5.40;4.90;;;;;;;30.53;73.58;100826.03;5013637;28;69708;-37
2022/06/23 12:10:09;;;;;;;4.20;3.90;;;;;;;30.47;74.25;100833.16;5012607;28;66215;-37
2022/06/23 12:12:43;;;;;;;4.80;4.47;;;;;;;30.22;73.21;100791.69;4997501;28;70517;-38
2022/06/23 12:15:20;;;;;;;5.68;3.45;;;;;;;30.28;73.50;100807.91;5014105;28;65676;-37
2022/06/23 12:17:57;;;;;;;4.07;3.72;;;;;;;30.02;73.12;100775.56;5017998;28;70402;-39
2022/06/23 12:20:35;;;;;;;5.00;3.35;;;;;;;30.34;73.10;100851.34;5017055;28;65802;-40
2022/06/23 12:23:26;;;;;;;4.07;3.78;;;;;;;30.27;73.66;100849.50;5020698;28;70560;-40
2022/06/23 12:26:03;;;;;;;5.20;4.77;;;;;;;30.26;74.17;100847.88;5016873;28;66327;-38
2022/06/23 12:28:50;;;;;;;5.75;5.25;;;;;;;30.21;74.07;100860.34;5017548;28;69161;-37
2022/06/23 12:31:26;;;;;;;5.95;5.43;;;;;;;30.33;74.85;100874.06;5016069;28;65713;-38
2022/06/23 12:34:23;;;;;;;9.02;4.40;;;;;;;30.31;74.88;100857.19;5014616;28;70139;-40
2022/06/23 12:37:18;;;;;;;5.13;4.15;;;;;;;29.79;74.23;100787.75;5015332;28;65913;-40
2022/06/23 12:40:06;;;;;;;5.03;4.60;;;;;;;30.26;73.87;100868.69;5019188;28;70512;-39
2022/06/23 12:42:43;;;;;;;5.25;4.32;;;;;;;30.30;73.87;100869.91;5013951;28;66219;-39
2022/06/23 12:45:42;;;;;;;4.82;4.43;;;;;;;30.30;74.88;100869.06;5014733;28;69104;-38
2022/06/23 12:48:57;;;;;;;6.75;4.95;;;;;;;30.37;75.12;100870.72;5012154;28;65967;-39
2022/06/23 12:51:44;;;;;;;5.53;4.20;;;;;;;30.50;74.72;100880.59;5018373;28;70479;-40